SWR656 GMAD-LSZH
Flight info
| Callsign | SWR656 |
|---|---|
| Flight time | N/A |
| Altitude | 36000 |
| Route | MOGBA UH300 ESS UN871 ADUBI DCT VJF DCT MAR DCT ALCOL/N0475F380 DCT LOGRO DCT ETANA DCT VTB DCT PALIO DCT SEGRE DCT YAKXU DCT RONNY DCT TOPTU DCT TOU DCT GAI DCT MEN DCT NINUN DCT LATAM DCT ETREK DCT LTP/N0485F340 DCT SOPLO DCT OMASI DCT KINNI DCT LAMUR DCT GUDAX Z57 DOPIL |
| Aircraft | B77W/H-SDE1E2E3FGHIJ2J3J4J5M1RWXY/LB1D1 |
Departure
| Time | 2026-04-23 14:57 |
|---|---|
| Airport | Al Massira Airport (GMAD) |
Arrival
| Time | N/A |
|---|---|
| Airport | Zürich Airport (LSZH) |
| Time | Latitude | Longitude | Altitude | Speed | Heading |
|---|---|---|---|---|---|
| 2026-04-23 14:51 | 30.32792 | -9.40708 | 242 ft | 9 kts | 115° |
| 2026-04-23 14:51 | 30.32736 | -9.40681 | 240 ft | 9 kts | 173° |
| 2026-04-23 14:52 | 30.32672 | -9.40669 | 238 ft | 9 kts | 175° |
| 2026-04-23 14:52 | 30.32608 | -9.40668 | 239 ft | 9 kts | 181° |
| 2026-04-23 14:52 | 30.32541 | -9.40670 | 239 ft | 9 kts | 181° |
| 2026-04-23 14:52 | 30.32476 | -9.40663 | 237 ft | 10 kts | 156° |
| 2026-04-23 14:53 | 30.32439 | -9.40581 | 239 ft | 12 kts | 98° |
| 2026-04-23 14:53 | 30.32434 | -9.40481 | 237 ft | 12 kts | 91° |
| 2026-04-23 14:53 | 30.32432 | -9.40381 | 240 ft | 12 kts | 92° |
| 2026-04-23 14:53 | 30.32430 | -9.40277 | 239 ft | 17 kts | 91° |
| 2026-04-23 14:54 | 30.32427 | -9.40133 | 236 ft | 18 kts | 91° |
| 2026-04-23 14:54 | 30.32424 | -9.39990 | 239 ft | 18 kts | 91° |
| 2026-04-23 14:54 | 30.32420 | -9.39847 | 240 ft | 18 kts | 92° |
| 2026-04-23 14:54 | 30.32416 | -9.39707 | 239 ft | 18 kts | 92° |
| 2026-04-23 14:55 | 30.32410 | -9.39563 | 236 ft | 18 kts | 99° |
| 2026-04-23 14:55 | 30.32313 | -9.39500 | 239 ft | 18 kts | 183° |
| 2026-04-23 14:55 | 30.32231 | -9.39587 | 241 ft | 18 kts | 265° |
| 2026-04-23 14:55 | 30.32230 | -9.39630 | 240 ft | 0 kts | 271° |
| 2026-04-23 14:56 | 30.32230 | -9.39653 | 240 ft | 17 kts | 270° |
| 2026-04-23 14:56 | 30.32242 | -9.40252 | 237 ft | 133 kts | 271° |
| 2026-04-23 14:57 | 30.32255 | -9.41657 | 792 ft | 194 kts | 272° |
| 2026-04-23 14:57 | 30.32225 | -9.43291 | 2264 ft | 211 kts | 266° |
| 2026-04-23 14:57 | 30.32170 | -9.45015 | 3285 ft | 217 kts | 275° |
| 2026-04-23 14:57 | 30.32322 | -9.46833 | 3717 ft | 237 kts | 263° |
| 2026-04-23 14:58 | 30.31754 | -9.48673 | 4380 ft | 249 kts | 242° |
| 2026-04-23 14:58 | 30.30889 | -9.50427 | 5325 ft | 253 kts | 239° |
| 2026-04-23 14:58 | 30.30007 | -9.52174 | 6368 ft | 252 kts | 239° |
| 2026-04-23 14:58 | 30.29133 | -9.53972 | 7211 ft | 256 kts | 245° |
| 2026-04-23 14:59 | 30.28900 | -9.56031 | 8017 ft | 269 kts | 279° |
| 2026-04-23 14:59 | 30.29745 | -9.57996 | 8781 ft | 284 kts | 313° |